sensor_id;sensor_type;location;lat;lon;timestamp;P1;durP1;ratioP1;P2;durP2;ratioP2
43256;SDS011;28860;43.212;27.934;2023-08-06T00:00:21;17.70;;;8.50;;
43256;SDS011;28860;43.212;27.934;2023-08-06T00:02:50;21.35;;;9.38;;
43256;SDS011;28860;43.212;27.934;2023-08-06T00:05:18;19.27;;;9.00;;
43256;SDS011;28860;43.212;27.934;2023-08-06T00:07:47;16.35;;;8.38;;
43256;SDS011;28860;43.212;27.934;2023-08-06T00:10:15;22.30;;;9.30;;
43256;SDS011;28860;43.212;27.934;2023-08-06T00:12:42;18.75;;;8.98;;
43256;SDS011;28860;43.212;27.934;2023-08-06T00:15:10;21.15;;;8.80;;
43256;SDS011;28860;43.212;27.934;2023-08-06T00:17:39;18.63;;;8.98;;
43256;SDS011;28860;43.212;27.934;2023-08-06T00:20:05;19.80;;;8.95;;
43256;SDS011;28860;43.212;27.934;2023-08-06T00:22:35;19.00;;;8.82;;
43256;SDS011;28860;43.212;27.934;2023-08-06T00:25:04;18.02;;;8.52;;
43256;SDS011;28860;43.212;27.934;2023-08-06T00:27:33;17.40;;;9.15;;
43256;SDS011;28860;43.212;27.934;2023-08-06T00:32:27;22.05;;;9.63;;
43256;SDS011;28860;43.212;27.934;2023-08-06T00:34:53;17.38;;;8.95;;
43256;SDS011;28860;43.212;27.934;2023-08-06T00:37:19;22.70;;;9.85;;
43256;SDS011;28860;43.212;27.934;2023-08-06T00:39:44;19.05;;;9.40;;
43256;SDS011;28860;43.212;27.934;2023-08-06T00:42:10;23.73;;;8.88;;
43256;SDS011;28860;43.212;27.934;2023-08-06T00:44:37;17.88;;;9.13;;
43256;SDS011;28860;43.212;27.934;2023-08-06T00:47:03;15.20;;;9.07;;
43256;SDS011;28860;43.212;27.934;2023-08-06T00:49:32;17.80;;;9.52;;
43256;SDS011;28860;43.212;27.934;2023-08-06T00:51:58;23.27;;;9.38;;
43256;SDS011;28860;43.212;27.934;2023-08-06T00:54:27;16.77;;;8.35;;
43256;SDS011;28860;43.212;27.934;2023-08-06T00:56:59;17.00;;;9.10;;
43256;SDS011;28860;43.212;27.934;2023-08-06T00:59:26;16.23;;;9.07;;
43256;SDS011;28860;43.212;27.934;2023-08-06T01:01:52;17.15;;;8.63;;
43256;SDS011;28860;43.212;27.934;2023-08-06T01:04:20;18.13;;;8.55;;
43256;SDS011;28860;43.212;27.934;2023-08-06T01:06:51;15.00;;;8.00;;
43256;SDS011;28860;43.212;27.934;2023-08-06T01:09:35;13.02;;;8.18;;
43256;SDS011;28860;43.212;27.934;2023-08-06T01:12:27;17.38;;;9.05;;
43256;SDS011;28860;43.212;27.934;2023-08-06T01:17:58;15.73;;;8.30;;
43256;SDS011;28860;43.212;27.934;2023-08-06T01:20:28;19.67;;;8.27;;
43256;SDS011;28860;43.212;27.934;2023-08-06T01:22:54;15.07;;;8.52;;
43256;SDS011;28860;43.212;27.934;2023-08-06T01:25:20;16.65;;;8.52;;
43256;SDS011;28860;43.212;27.934;2023-08-06T01:27:49;21.35;;;8.63;;
43256;SDS011;28860;43.212;27.934;2023-08-06T01:30:20;19.42;;;8.68;;
43256;SDS011;28860;43.212;27.934;2023-08-06T01:32:53;18.50;;;8.90;;
43256;SDS011;28860;43.212;27.934;2023-08-06T01:35:24;15.98;;;8.80;;
43256;SDS011;28860;43.212;27.934;2023-08-06T01:37:51;20.67;;;8.95;;
43256;SDS011;28860;43.212;27.934;2023-08-06T01:40:19;21.08;;;9.02;;
43256;SDS011;28860;43.212;27.934;2023-08-06T01:42:52;23.55;;;9.60;;
43256;SDS011;28860;43.212;27.934;2023-08-06T01:45:18;17.00;;;9.43;;
43256;SDS011;28860;43.212;27.934;2023-08-06T01:47:45;19.02;;;8.82;;
43256;SDS011;28860;43.212;27.934;2023-08-06T01:50:11;22.65;;;8.63;;
43256;SDS011;28860;43.212;27.934;2023-08-06T01:52:37;23.83;;;9.30;;
43256;SDS011;28860;43.212;27.934;2023-08-06T01:55:05;19.92;;;9.15;;
43256;SDS011;28860;43.212;27.934;2023-08-06T01:57:30;15.55;;;8.95;;
43256;SDS011;28860;43.212;27.934;2023-08-06T01:59:56;16.17;;;8.52;;
43256;SDS011;28860;43.212;27.934;2023-08-06T02:02:22;23.40;;;8.93;;
43256;SDS011;28860;43.212;27.934;2023-08-06T02:04:47;18.63;;;9.10;;
43256;SDS011;28860;43.212;27.934;2023-08-06T02:07:13;16.80;;;8.75;;
43256;SDS011;28860;43.212;27.934;2023-08-06T02:09:38;22.42;;;9.23;;
43256;SDS011;28860;43.212;27.934;2023-08-06T02:12:05;19.48;;;9.13;;
43256;SDS011;28860;43.212;27.934;2023-08-06T02:14:33;25.13;;;9.30;;
43256;SDS011;28860;43.212;27.934;2023-08-06T02:17:01;26.17;;;9.43;;
43256;SDS011;28860;43.212;27.934;2023-08-06T02:19:27;17.35;;;9.13;;
43256;SDS011;28860;43.212;27.934;2023-08-06T02:21:52;21.35;;;9.30;;
43256;SDS011;28860;43.212;27.934;2023-08-06T02:24:18;19.27;;;9.73;;
43256;SDS011;28860;43.212;27.934;2023-08-06T02:26:44;15.20;;;8.98;;
43256;SDS011;28860;43.212;27.934;2023-08-06T02:29:09;21.20;;;9.43;;
43256;SDS011;28860;43.212;27.934;2023-08-06T02:31:35;18.70;;;9.48;;
43256;SDS011;28860;43.212;27.934;2023-08-06T02:34:00;21.70;;;8.95;;
43256;SDS011;28860;43.212;27.934;2023-08-06T02:36:26;17.67;;;9.15;;
43256;SDS011;28860;43.212;27.934;2023-08-06T02:38:54;24.20;;;8.93;;
43256;SDS011;28860;43.212;27.934;2023-08-06T02:41:23;14.52;;;9.23;;
43256;SDS011;28860;43.212;27.934;2023-08-06T02:43:48;23.05;;;9.00;;
43256;SDS011;28860;43.212;27.934;2023-08-06T02:46:17;19.65;;;8.60;;
43256;SDS011;28860;43.212;27.934;2023-08-06T02:48:43;16.63;;;8.75;;
43256;SDS011;28860;43.212;27.934;2023-08-06T02:51:09;19.00;;;8.77;;
43256;SDS011;28860;43.212;27.934;2023-08-06T02:53:34;15.77;;;8.80;;
43256;SDS011;28860;43.212;27.934;2023-08-06T02:56:00;18.42;;;9.18;;
43256;SDS011;28860;43.212;27.934;2023-08-06T02:58:25;17.42;;;9.02;;
43256;SDS011;28860;43.212;27.934;2023-08-06T03:01:04;23.35;;;10.63;;
43256;SDS011;28860;43.212;27.934;2023-08-06T03:03:32;22.15;;;8.73;;
43256;SDS011;28860;43.212;27.934;2023-08-06T03:06:01;17.65;;;8.98;;
43256;SDS011;28860;43.212;27.934;2023-08-06T03:08:29;17.52;;;9.60;;
43256;SDS011;28860;43.212;27.934;2023-08-06T03:10:55;21.33;;;9.80;;
43256;SDS011;28860;43.212;27.934;2023-08-06T03:13:20;19.35;;;8.25;;
43256;SDS011;28860;43.212;27.934;2023-08-06T03:15:53;15.60;;;8.57;;
43256;SDS011;28860;43.212;27.934;2023-08-06T03:18:21;22.48;;;8.93;;
43256;SDS011;28860;43.212;27.934;2023-08-06T03:20:47;13.40;;;8.73;;
43256;SDS011;28860;43.212;27.934;2023-08-06T03:23:13;20.40;;;8.90;;
43256;SDS011;28860;43.212;27.934;2023-08-06T03:25:39;15.88;;;8.30;;
43256;SDS011;28860;43.212;27.934;2023-08-06T03:28:07;21.83;;;8.60;;
43256;SDS011;28860;43.212;27.934;2023-08-06T03:30:32;16.80;;;8.23;;
43256;SDS011;28860;43.212;27.934;2023-08-06T03:33:00;15.32;;;8.43;;
43256;SDS011;28860;43.212;27.934;2023-08-06T03:35:29;14.25;;;8.27;;
43256;SDS011;28860;43.212;27.934;2023-08-06T03:37:57;17.80;;;8.82;;
43256;SDS011;28860;43.212;27.934;2023-08-06T03:40:23;15.48;;;8.55;;
43256;SDS011;28860;43.212;27.934;2023-08-06T03:42:48;16.05;;;8.13;;
43256;SDS011;28860;43.212;27.934;2023-08-06T03:45:14;17.45;;;8.77;;
43256;SDS011;28860;43.212;27.934;2023-08-06T03:47:39;16.00;;;8.07;;
43256;SDS011;28860;43.212;27.934;2023-08-06T03:50:05;29.77;;;9.77;;
43256;SDS011;28860;43.212;27.934;2023-08-06T03:52:34;18.60;;;10.07;;
43256;SDS011;28860;43.212;27.934;2023-08-06T03:54:59;20.38;;;10.30;;
43256;SDS011;28860;43.212;27.934;2023-08-06T03:57:25;19.55;;;10.80;;
43256;SDS011;28860;43.212;27.934;2023-08-06T03:59:51;19.98;;;10.75;;
43256;SDS011;28860;43.212;27.934;2023-08-06T04:02:19;21.20;;;10.13;;
43256;SDS011;28860;43.212;27.934;2023-08-06T04:04:44;20.85;;;10.45;;
43256;SDS011;28860;43.212;27.934;2023-08-06T04:07:20;20.90;;;10.50;;
43256;SDS011;28860;43.212;27.934;2023-08-06T04:09:56;20.27;;;10.35;;
43256;SDS011;28860;43.212;27.934;2023-08-06T04:12:23;21.13;;;10.27;;
43256;SDS011;28860;43.212;27.934;2023-08-06T04:14:52;23.60;;;10.23;;
43256;SDS011;28860;43.212;27.934;2023-08-06T04:17:20;25.65;;;10.05;;
43256;SDS011;28860;43.212;27.934;2023-08-06T04:19:50;21.60;;;11.10;;
43256;SDS011;28860;43.212;27.934;2023-08-06T04:22:16;22.38;;;10.35;;
43256;SDS011;28860;43.212;27.934;2023-08-06T04:24:42;22.67;;;9.90;;
43256;SDS011;28860;43.212;27.934;2023-08-06T04:27:09;17.95;;;8.80;;
43256;SDS011;28860;43.212;27.934;2023-08-06T04:29:35;16.35;;;8.40;;
43256;SDS011;28860;43.212;27.934;2023-08-06T04:32:01;16.85;;;8.25;;
43256;SDS011;28860;43.212;27.934;2023-08-06T04:34:27;17.98;;;8.43;;
43256;SDS011;28860;43.212;27.934;2023-08-06T04:36:52;16.08;;;8.30;;
43256;SDS011;28860;43.212;27.934;2023-08-06T04:39:18;17.05;;;8.55;;
43256;SDS011;28860;43.212;27.934;2023-08-06T04:41:43;17.50;;;8.25;;
43256;SDS011;28860;43.212;27.934;2023-08-06T04:44:09;19.40;;;8.35;;
43256;SDS011;28860;43.212;27.934;2023-08-06T04:46:42;16.75;;;8.15;;
43256;SDS011;28860;43.212;27.934;2023-08-06T04:49:07;18.05;;;8.60;;
43256;SDS011;28860;43.212;27.934;2023-08-06T04:51:33;17.13;;;8.32;;
43256;SDS011;28860;43.212;27.934;2023-08-06T04:53:58;18.80;;;8.95;;
43256;SDS011;28860;43.212;27.934;2023-08-06T04:56:27;15.48;;;8.27;;
43256;SDS011;28860;43.212;27.934;2023-08-06T04:58:52;16.63;;;8.23;;
43256;SDS011;28860;43.212;27.934;2023-08-06T05:01:18;21.23;;;9.07;;
43256;SDS011;28860;43.212;27.934;2023-08-06T05:03:46;16.85;;;8.13;;
43256;SDS011;28860;43.212;27.934;2023-08-06T05:06:12;14.98;;;8.82;;
43256;SDS011;28860;43.212;27.934;2023-08-06T05:08:38;18.20;;;9.05;;
43256;SDS011;28860;43.212;27.934;2023-08-06T05:11:03;19.98;;;9.10;;
43256;SDS011;28860;43.212;27.934;2023-08-06T05:13:29;18.65;;;8.80;;
43256;SDS011;28860;43.212;27.934;2023-08-06T05:15:55;15.05;;;8.65;;
43256;SDS011;28860;43.212;27.934;2023-08-06T05:18:20;13.50;;;8.15;;
43256;SDS011;28860;43.212;27.934;2023-08-06T05:20:46;22.90;;;9.38;;
43256;SDS011;28860;43.212;27.934;2023-08-06T05:23:11;18.17;;;9.02;;
43256;SDS011;28860;43.212;27.934;2023-08-06T05:25:39;20.42;;;8.57;;
43256;SDS011;28860;43.212;27.934;2023-08-06T05:28:10;16.48;;;8.98;;
43256;SDS011;28860;43.212;27.934;2023-08-06T05:30:39;14.77;;;8.45;;
43256;SDS011;28860;43.212;27.934;2023-08-06T05:33:05;21.63;;;9.10;;
43256;SDS011;28860;43.212;27.934;2023-08-06T05:35:31;17.73;;;9.07;;
43256;SDS011;28860;43.212;27.934;2023-08-06T05:37:57;20.27;;;9.07;;
43256;SDS011;28860;43.212;27.934;2023-08-06T05:40:22;16.90;;;8.70;;
43256;SDS011;28860;43.212;27.934;2023-08-06T05:42:50;14.93;;;8.00;;
43256;SDS011;28860;43.212;27.934;2023-08-06T05:45:16;16.15;;;8.18;;
43256;SDS011;28860;43.212;27.934;2023-08-06T05:47:44;17.00;;;9.23;;
43256;SDS011;28860;43.212;27.934;2023-08-06T05:50:10;15.68;;;8.15;;
43256;SDS011;28860;43.212;27.934;2023-08-06T05:52:38;14.02;;;8.35;;
43256;SDS011;28860;43.212;27.934;2023-08-06T05:55:04;19.95;;;8.35;;
43256;SDS011;28860;43.212;27.934;2023-08-06T05:57:29;18.75;;;8.55;;
43256;SDS011;28860;43.212;27.934;2023-08-06T05:59:55;14.75;;;7.35;;
43256;SDS011;28860;43.212;27.934;2023-08-06T06:02:23;15.50;;;8.32;;
43256;SDS011;28860;43.212;27.934;2023-08-06T06:04:49;17.80;;;7.97;;
43256;SDS011;28860;43.212;27.934;2023-08-06T06:07:14;15.25;;;7.88;;
43256;SDS011;28860;43.212;27.934;2023-08-06T06:09:42;18.67;;;8.30;;
43256;SDS011;28860;43.212;27.934;2023-08-06T06:12:08;13.27;;;7.68;;
43256;SDS011;28860;43.212;27.934;2023-08-06T06:14:34;16.13;;;7.72;;
43256;SDS011;28860;43.212;27.934;2023-08-06T06:16:59;13.80;;;8.15;;
43256;SDS011;28860;43.212;27.934;2023-08-06T06:19:25;22.05;;;7.82;;
43256;SDS011;28860;43.212;27.934;2023-08-06T06:21:51;19.08;;;8.27;;
43256;SDS011;28860;43.212;27.934;2023-08-06T06:24:19;18.92;;;8.73;;
43256;SDS011;28860;43.212;27.934;2023-08-06T06:26:44;13.93;;;7.15;;
43256;SDS011;28860;43.212;27.934;2023-08-06T06:29:10;15.30;;;7.15;;
43256;SDS011;28860;43.212;27.934;2023-08-06T06:31:36;20.77;;;8.15;;
43256;SDS011;28860;43.212;27.934;2023-08-06T06:34:01;16.45;;;7.05;;
43256;SDS011;28860;43.212;27.934;2023-08-06T06:36:27;15.30;;;7.60;;
43256;SDS011;28860;43.212;27.934;2023-08-06T06:38:52;11.38;;;7.22;;
43256;SDS011;28860;43.212;27.934;2023-08-06T06:41:21;20.20;;;7.65;;
43256;SDS011;28860;43.212;27.934;2023-08-06T06:43:46;14.60;;;7.93;;
43256;SDS011;28860;43.212;27.934;2023-08-06T06:46:12;16.05;;;7.70;;
43256;SDS011;28860;43.212;27.934;2023-08-06T06:48:37;16.98;;;7.00;;
43256;SDS011;28860;43.212;27.934;2023-08-06T06:51:03;20.10;;;7.57;;
43256;SDS011;28860;43.212;27.934;2023-08-06T06:53:28;15.25;;;7.45;;
43256;SDS011;28860;43.212;27.934;2023-08-06T06:55:55;12.23;;;6.85;;
43256;SDS011;28860;43.212;27.934;2023-08-06T06:58:21;18.23;;;7.00;;
43256;SDS011;28860;43.212;27.934;2023-08-06T07:00:47;15.63;;;7.65;;
43256;SDS011;28860;43.212;27.934;2023-08-06T07:03:16;12.55;;;6.07;;
43256;SDS011;28860;43.212;27.934;2023-08-06T07:05:42;15.73;;;7.50;;
43256;SDS011;28860;43.212;27.934;2023-08-06T07:08:09;16.38;;;6.75;;
43256;SDS011;28860;43.212;27.934;2023-08-06T07:10:38;17.33;;;7.28;;
43256;SDS011;28860;43.212;27.934;2023-08-06T07:13:06;13.52;;;6.80;;
43256;SDS011;28860;43.212;27.934;2023-08-06T07:15:34;16.42;;;7.25;;
43256;SDS011;28860;43.212;27.934;2023-08-06T07:18:00;16.02;;;6.78;;
43256;SDS011;28860;43.212;27.934;2023-08-06T07:20:26;21.70;;;6.80;;
43256;SDS011;28860;43.212;27.934;2023-08-06T07:22:54;21.98;;;7.68;;
43256;SDS011;28860;43.212;27.934;2023-08-06T07:25:20;19.42;;;7.32;;
43256;SDS011;28860;43.212;27.934;2023-08-06T07:27:47;18.00;;;6.90;;
43256;SDS011;28860;43.212;27.934;2023-08-06T07:30:13;16.70;;;7.90;;
43256;SDS011;28860;43.212;27.934;2023-08-06T07:32:38;12.25;;;7.07;;
43256;SDS011;28860;43.212;27.934;2023-08-06T07:35:07;12.77;;;7.18;;
43256;SDS011;28860;43.212;27.934;2023-08-06T07:37:37;15.93;;;7.55;;
43256;SDS011;28860;43.212;27.934;2023-08-06T07:40:03;15.38;;;7.53;;
43256;SDS011;28860;43.212;27.934;2023-08-06T07:42:30;15.02;;;7.40;;
43256;SDS011;28860;43.212;27.934;2023-08-06T07:44:56;18.30;;;7.88;;
43256;SDS011;28860;43.212;27.934;2023-08-06T07:47:23;11.80;;;6.43;;
43256;SDS011;28860;43.212;27.934;2023-08-06T07:49:48;13.00;;;6.95;;
43256;SDS011;28860;43.212;27.934;2023-08-06T07:52:14;12.40;;;6.88;;
43256;SDS011;28860;43.212;27.934;2023-08-06T07:54:40;13.70;;;6.95;;
43256;SDS011;28860;43.212;27.934;2023-08-06T07:57:05;12.38;;;7.32;;
43256;SDS011;28860;43.212;27.934;2023-08-06T07:59:31;11.50;;;7.38;;
43256;SDS011;28860;43.212;27.934;2023-08-06T08:01:57;11.65;;;6.72;;
43256;SDS011;28860;43.212;27.934;2023-08-06T08:04:23;14.10;;;6.47;;
43256;SDS011;28860;43.212;27.934;2023-08-06T08:06:49;14.52;;;6.53;;
43256;SDS011;28860;43.212;27.934;2023-08-06T08:09:14;14.73;;;7.40;;
43256;SDS011;28860;43.212;27.934;2023-08-06T08:11:43;15.25;;;6.93;;
43256;SDS011;28860;43.212;27.934;2023-08-06T08:14:08;18.02;;;7.05;;
43256;SDS011;28860;43.212;27.934;2023-08-06T08:16:34;16.02;;;7.32;;
43256;SDS011;28860;43.212;27.934;2023-08-06T08:19:00;13.27;;;6.38;;
43256;SDS011;28860;43.212;27.934;2023-08-06T08:21:25;12.45;;;6.25;;
43256;SDS011;28860;43.212;27.934;2023-08-06T08:23:51;14.15;;;6.07;;
43256;SDS011;28860;43.212;27.934;2023-08-06T08:26:17;12.60;;;5.68;;
43256;SDS011;28860;43.212;27.934;2023-08-06T08:28:43;14.40;;;6.40;;
43256;SDS011;28860;43.212;27.934;2023-08-06T08:31:09;13.77;;;6.40;;
43256;SDS011;28860;43.212;27.934;2023-08-06T08:33:36;13.52;;;6.03;;
43256;SDS011;28860;43.212;27.934;2023-08-06T08:36:02;12.85;;;6.28;;
43256;SDS011;28860;43.212;27.934;2023-08-06T08:38:28;17.10;;;6.22;;
43256;SDS011;28860;43.212;27.934;2023-08-06T08:40:58;15.82;;;6.10;;
43256;SDS011;28860;43.212;27.934;2023-08-06T08:43:24;12.25;;;5.75;;
43256;SDS011;28860;43.212;27.934;2023-08-06T08:45:53;12.95;;;5.47;;
43256;SDS011;28860;43.212;27.934;2023-08-06T08:48:20;19.85;;;6.95;;
43256;SDS011;28860;43.212;27.934;2023-08-06T08:50:48;13.60;;;6.43;;
43256;SDS011;28860;43.212;27.934;2023-08-06T08:53:15;12.55;;;6.25;;
43256;SDS011;28860;43.212;27.934;2023-08-06T08:55:46;16.33;;;6.60;;
43256;SDS011;28860;43.212;27.934;2023-08-06T08:58:13;12.57;;;6.25;;
43256;SDS011;28860;43.212;27.934;2023-08-06T09:00:40;13.07;;;6.30;;
43256;SDS011;28860;43.212;27.934;2023-08-06T09:03:07;12.50;;;6.60;;
43256;SDS011;28860;43.212;27.934;2023-08-06T09:05:33;19.95;;;6.70;;
43256;SDS011;28860;43.212;27.934;2023-08-06T09:08:03;16.92;;;6.45;;
43256;SDS011;28860;43.212;27.934;2023-08-06T09:10:30;10.82;;;6.50;;
43256;SDS011;28860;43.212;27.934;2023-08-06T09:12:56;16.63;;;6.30;;
43256;SDS011;28860;43.212;27.934;2023-08-06T09:15:27;12.30;;;6.00;;
43256;SDS011;28860;43.212;27.934;2023-08-06T09:17:53;14.13;;;6.65;;
43256;SDS011;28860;43.212;27.934;2023-08-06T09:20:20;14.43;;;6.38;;
43256;SDS011;28860;43.212;27.934;2023-08-06T09:22:51;13.38;;;6.25;;
43256;SDS011;28860;43.212;27.934;2023-08-06T09:25:22;13.25;;;6.35;;
43256;SDS011;28860;43.212;27.934;2023-08-06T09:27:51;16.98;;;6.13;;
43256;SDS011;28860;43.212;27.934;2023-08-06T09:30:33;12.52;;;6.00;;
43256;SDS011;28860;43.212;27.934;2023-08-06T09:33:01;15.45;;;6.15;;
43256;SDS011;28860;43.212;27.934;2023-08-06T09:35:30;10.63;;;5.65;;
43256;SDS011;28860;43.212;27.934;2023-08-06T09:38:06;15.45;;;6.45;;
43256;SDS011;28860;43.212;27.934;2023-08-06T09:40:34;10.15;;;5.57;;
43256;SDS011;28860;43.212;27.934;2023-08-06T09:42:59;13.15;;;5.35;;
43256;SDS011;28860;43.212;27.934;2023-08-06T09:45:29;12.25;;;5.22;;
43256;SDS011;28860;43.212;27.934;2023-08-06T09:47:59;14.55;;;5.85;;
43256;SDS011;28860;43.212;27.934;2023-08-06T09:50:28;10.38;;;5.47;;
43256;SDS011;28860;43.212;27.934;2023-08-06T09:52:58;12.60;;;5.72;;
43256;SDS011;28860;43.212;27.934;2023-08-06T09:55:25;15.02;;;5.35;;
43256;SDS011;28860;43.212;27.934;2023-08-06T09:57:54;14.73;;;5.40;;
43256;SDS011;28860;43.212;27.934;2023-08-06T10:00:20;13.20;;;5.65;;
43256;SDS011;28860;43.212;27.934;2023-08-06T10:02:47;14.27;;;5.55;;
43256;SDS011;28860;43.212;27.934;2023-08-06T10:05:14;10.23;;;5.28;;
43256;SDS011;28860;43.212;27.934;2023-08-06T10:07:40;16.23;;;6.07;;
43256;SDS011;28860;43.212;27.934;2023-08-06T10:10:08;10.25;;;5.43;;
43256;SDS011;28860;43.212;27.934;2023-08-06T10:12:49;12.73;;;5.55;;
43256;SDS011;28860;43.212;27.934;2023-08-06T10:15:20;11.45;;;5.25;;
43256;SDS011;28860;43.212;27.934;2023-08-06T10:17:51;10.30;;;5.05;;
43256;SDS011;28860;43.212;27.934;2023-08-06T10:20:23;16.13;;;5.68;;
43256;SDS011;28860;43.212;27.934;2023-08-06T10:23:01;17.05;;;5.78;;
43256;SDS011;28860;43.212;27.934;2023-08-06T10:25:28;8.63;;;4.78;;
43256;SDS011;28860;43.212;27.934;2023-08-06T10:27:56;10.35;;;5.20;;
43256;SDS011;28860;43.212;27.934;2023-08-06T10:30:23;11.98;;;5.40;;
43256;SDS011;28860;43.212;27.934;2023-08-06T10:32:57;12.75;;;5.45;;
43256;SDS011;28860;43.212;27.934;2023-08-06T10:35:47;11.00;;;4.95;;
43256;SDS011;28860;43.212;27.934;2023-08-06T10:38:21;14.18;;;5.68;;
43256;SDS011;28860;43.212;27.934;2023-08-06T10:43:32;12.95;;;6.00;;
43256;SDS011;28860;43.212;27.934;2023-08-06T10:46:02;18.30;;;5.97;;
43256;SDS011;28860;43.212;27.934;2023-08-06T10:51:08;11.43;;;4.80;;
43256;SDS011;28860;43.212;27.934;2023-08-06T10:53:36;10.27;;;5.03;;
43256;SDS011;28860;43.212;27.934;2023-08-06T10:56:11;18.55;;;5.22;;
43256;SDS011;28860;43.212;27.934;2023-08-06T10:58:44;10.45;;;4.82;;
43256;SDS011;28860;43.212;27.934;2023-08-06T11:01:11;14.20;;;5.30;;
43256;SDS011;28860;43.212;27.934;2023-08-06T11:03:37;8.32;;;5.20;;
43256;SDS011;28860;43.212;27.934;2023-08-06T11:06:04;14.15;;;5.13;;
43256;SDS011;28860;43.212;27.934;2023-08-06T11:08:35;16.17;;;5.85;;
43256;SDS011;28860;43.212;27.934;2023-08-06T11:13:41;13.88;;;4.90;;
43256;SDS011;28860;43.212;27.934;2023-08-06T11:16:11;12.43;;;5.70;;
43256;SDS011;28860;43.212;27.934;2023-08-06T11:18:39;10.60;;;4.93;;
43256;SDS011;28860;43.212;27.934;2023-08-06T11:21:07;8.73;;;5.07;;
43256;SDS011;28860;43.212;27.934;2023-08-06T11:23:34;10.82;;;4.95;;
43256;SDS011;28860;43.212;27.934;2023-08-06T11:26:00;13.80;;;5.00;;
43256;SDS011;28860;43.212;27.934;2023-08-06T11:28:26;12.00;;;5.05;;
43256;SDS011;28860;43.212;27.934;2023-08-06T11:30:52;12.10;;;5.15;;
43256;SDS011;28860;43.212;27.934;2023-08-06T11:33:21;9.75;;;4.70;;
43256;SDS011;28860;43.212;27.934;2023-08-06T11:35:50;13.35;;;5.20;;
43256;SDS011;28860;43.212;27.934;2023-08-06T11:38:16;8.50;;;4.63;;
43256;SDS011;28860;43.212;27.934;2023-08-06T11:40:47;8.40;;;4.30;;
43256;SDS011;28860;43.212;27.934;2023-08-06T11:43:13;10.52;;;5.30;;
43256;SDS011;28860;43.212;27.934;2023-08-06T11:45:43;10.75;;;5.32;;
43256;SDS011;28860;43.212;27.934;2023-08-06T11:48:09;12.95;;;5.25;;
43256;SDS011;28860;43.212;27.934;2023-08-06T11:50:37;15.00;;;5.28;;
43256;SDS011;28860;43.212;27.934;2023-08-06T11:53:04;13.18;;;5.05;;
43256;SDS011;28860;43.212;27.934;2023-08-06T11:55:30;8.57;;;5.30;;
43256;SDS011;28860;43.212;27.934;2023-08-06T11:57:59;11.70;;;5.30;;
43256;SDS011;28860;43.212;27.934;2023-08-06T12:00:31;13.30;;;5.40;;
43256;SDS011;28860;43.212;27.934;2023-08-06T12:02:56;12.18;;;4.97;;
43256;SDS011;28860;43.212;27.934;2023-08-06T12:05:23;14.10;;;5.90;;
43256;SDS011;28860;43.212;27.934;2023-08-06T12:07:57;16.05;;;6.00;;
43256;SDS011;28860;43.212;27.934;2023-08-06T12:10:25;107.22;;;8.77;;
43256;SDS011;28860;43.212;27.934;2023-08-06T12:12:51;151.98;;;11.30;;
43256;SDS011;28860;43.212;27.934;2023-08-06T12:15:18;26.65;;;4.65;;
43256;SDS011;28860;43.212;27.934;2023-08-06T12:17:44;7.40;;;2.38;;
43256;SDS011;28860;43.212;27.934;2023-08-06T12:20:09;9.18;;;2.42;;
43256;SDS011;28860;43.212;27.934;2023-08-06T12:22:36;14.20;;;3.13;;
43256;SDS011;28860;43.212;27.934;2023-08-06T12:25:12;10.43;;;2.90;;
43256;SDS011;28860;43.212;27.934;2023-08-06T12:27:39;11.50;;;3.38;;
43256;SDS011;28860;43.212;27.934;2023-08-06T12:30:06;11.70;;;2.95;;
43256;SDS011;28860;43.212;27.934;2023-08-06T12:32:33;7.45;;;3.28;;
43256;SDS011;28860;43.212;27.934;2023-08-06T12:35:01;10.80;;;3.78;;
43256;SDS011;28860;43.212;27.934;2023-08-06T12:37:27;7.75;;;3.88;;
43256;SDS011;28860;43.212;27.934;2023-08-06T12:39:52;7.15;;;3.85;;
43256;SDS011;28860;43.212;27.934;2023-08-06T12:42:18;7.32;;;4.05;;
43256;SDS011;28860;43.212;27.934;2023-08-06T12:44:49;11.20;;;3.97;;
43256;SDS011;28860;43.212;27.934;2023-08-06T12:47:15;11.25;;;4.22;;
43256;SDS011;28860;43.212;27.934;2023-08-06T12:49:42;9.05;;;3.92;;
43256;SDS011;28860;43.212;27.934;2023-08-06T12:52:07;8.73;;;3.97;;
43256;SDS011;28860;43.212;27.934;2023-08-06T12:54:34;7.68;;;4.72;;
43256;SDS011;28860;43.212;27.934;2023-08-06T12:57:02;11.68;;;4.63;;
43256;SDS011;28860;43.212;27.934;2023-08-06T12:59:28;10.93;;;4.60;;
43256;SDS011;28860;43.212;27.934;2023-08-06T13:01:54;7.78;;;4.68;;
43256;SDS011;28860;43.212;27.934;2023-08-06T13:04:23;7.95;;;4.65;;
43256;SDS011;28860;43.212;27.934;2023-08-06T13:06:48;10.90;;;5.35;;
43256;SDS011;28860;43.212;27.934;2023-08-06T13:09:14;13.32;;;5.45;;
43256;SDS011;28860;43.212;27.934;2023-08-06T13:11:40;9.57;;;4.68;;
43256;SDS011;28860;43.212;27.934;2023-08-06T13:14:11;8.60;;;4.85;;
43256;SDS011;28860;43.212;27.934;2023-08-06T13:16:39;10.88;;;4.60;;
43256;SDS011;28860;43.212;27.934;2023-08-06T13:19:06;12.38;;;4.43;;
43256;SDS011;28860;43.212;27.934;2023-08-06T13:21:33;14.13;;;4.72;;
43256;SDS011;28860;43.212;27.934;2023-08-06T13:24:15;9.18;;;4.32;;
43256;SDS011;28860;43.212;27.934;2023-08-06T13:26:40;11.95;;;4.05;;
43256;SDS011;28860;43.212;27.934;2023-08-06T13:29:06;12.48;;;4.45;;
43256;SDS011;28860;43.212;27.934;2023-08-06T13:31:36;9.25;;;3.72;;
43256;SDS011;28860;43.212;27.934;2023-08-06T13:34:02;8.07;;;3.80;;
43256;SDS011;28860;43.212;27.934;2023-08-06T13:36:28;10.75;;;3.85;;
43256;SDS011;28860;43.212;27.934;2023-08-06T13:38:54;7.30;;;3.92;;
43256;SDS011;28860;43.212;27.934;2023-08-06T13:41:19;6.75;;;3.78;;
43256;SDS011;28860;43.212;27.934;2023-08-06T13:43:45;5.75;;;3.53;;
43256;SDS011;28860;43.212;27.934;2023-08-06T13:46:11;5.57;;;3.55;;
43256;SDS011;28860;43.212;27.934;2023-08-06T13:48:42;7.63;;;3.50;;
43256;SDS011;28860;43.212;27.934;2023-08-06T13:51:09;8.05;;;3.50;;
43256;SDS011;28860;43.212;27.934;2023-08-06T13:53:36;5.95;;;3.13;;
43256;SDS011;28860;43.212;27.934;2023-08-06T13:56:01;7.43;;;3.50;;
43256;SDS011;28860;43.212;27.934;2023-08-06T13:58:28;6.90;;;3.83;;
43256;SDS011;28860;43.212;27.934;2023-08-06T14:00:53;4.90;;;2.92;;
43256;SDS011;28860;43.212;27.934;2023-08-06T14:03:19;5.28;;;3.17;;
43256;SDS011;28860;43.212;27.934;2023-08-06T14:05:48;9.52;;;3.60;;
43256;SDS011;28860;43.212;27.934;2023-08-06T14:08:15;9.65;;;3.70;;
43256;SDS011;28860;43.212;27.934;2023-08-06T14:10:43;6.00;;;3.08;;
43256;SDS011;28860;43.212;27.934;2023-08-06T14:13:09;9.15;;;3.60;;
43256;SDS011;28860;43.212;27.934;2023-08-06T14:15:34;8.00;;;3.63;;
43256;SDS011;28860;43.212;27.934;2023-08-06T14:18:00;7.75;;;4.00;;
43256;SDS011;28860;43.212;27.934;2023-08-06T14:20:25;9.57;;;4.00;;
43256;SDS011;28860;43.212;27.934;2023-08-06T14:22:53;9.35;;;3.67;;
43256;SDS011;28860;43.212;27.934;2023-08-06T14:25:27;5.67;;;3.67;;
43256;SDS011;28860;43.212;27.934;2023-08-06T14:27:53;7.95;;;3.70;;
43256;SDS011;28860;43.212;27.934;2023-08-06T14:30:21;8.85;;;4.20;;
43256;SDS011;28860;43.212;27.934;2023-08-06T14:32:51;11.23;;;3.65;;
43256;SDS011;28860;43.212;27.934;2023-08-06T14:35:17;4.85;;;3.42;;
43256;SDS011;28860;43.212;27.934;2023-08-06T14:37:42;7.00;;;3.53;;